createdAt,value
2023-04-17T00:00:37.737Z,30.30
2023-04-17T00:02:41.375Z,34.05
2023-04-17T00:04:45.582Z,33.08
2023-04-17T00:06:49.620Z,31.55
2023-04-17T00:08:52.916Z,37.22
2023-04-17T00:11:06.514Z,33.90
2023-04-17T00:13:11.550Z,35.95
2023-04-17T00:15:14.851Z,29.95
2023-04-17T00:17:19.599Z,34.45
2023-04-17T00:19:22.974Z,30.85
2023-04-17T00:21:26.368Z,34.78
2023-04-17T00:23:29.718Z,31.60
2023-04-17T00:25:33.098Z,41.30
2023-04-17T00:27:36.403Z,31.38
2023-04-17T00:29:39.735Z,37.47
2023-04-17T00:31:43.596Z,31.45
2023-04-17T00:33:48.411Z,34.80
2023-04-17T00:35:51.711Z,36.95
2023-04-17T00:37:55.018Z,33.92
2023-04-17T00:39:58.608Z,35.17
2023-04-17T00:42:02.661Z,34.33
2023-04-17T00:44:06.155Z,34.47
2023-04-17T00:46:10.484Z,36.25
2023-04-17T00:48:16.875Z,34.80
2023-04-17T00:50:22.229Z,35.55
2023-04-17T00:52:30.017Z,34.08
2023-04-17T00:54:34.217Z,36.80
2023-04-17T00:56:37.831Z,36.38
2023-04-17T00:58:42.139Z,38.70
2023-04-17T01:00:46.086Z,36.65
2023-04-17T01:02:49.487Z,35.55
2023-04-17T01:04:52.887Z,37.17
2023-04-17T01:06:59.502Z,38.00
2023-04-17T01:09:05.271Z,37.75
2023-04-17T01:11:08.851Z,39.25
2023-04-17T01:13:12.405Z,38.70
2023-04-17T01:15:17.920Z,34.97
2023-04-17T01:17:21.856Z,38.60
2023-04-17T01:19:25.793Z,37.17
2023-04-17T01:21:29.214Z,35.85
2023-04-17T01:23:45.197Z,37.55
2023-04-17T01:25:51.324Z,38.33
2023-04-17T01:27:55.237Z,36.05
2023-04-17T01:29:58.569Z,39.30
2023-04-17T01:32:01.971Z,39.35
2023-04-17T01:34:05.689Z,34.58
2023-04-17T01:36:09.429Z,38.10
2023-04-17T01:38:12.775Z,37.38
2023-04-17T01:40:16.208Z,40.58
2023-04-17T01:42:20.938Z,38.33
2023-04-17T01:44:24.294Z,40.40
2023-04-17T01:46:27.716Z,36.47
2023-04-17T01:48:31.723Z,38.35
2023-04-17T01:50:35.209Z,38.03
2023-04-17T01:52:39.932Z,35.28
2023-04-17T01:54:43.340Z,37.85
2023-04-17T01:56:46.947Z,40.00
2023-04-17T01:58:51.787Z,40.25
2023-04-17T02:00:55.837Z,41.15
2023-04-17T02:02:59.284Z,37.03
2023-04-17T02:05:03.092Z,42.53
2023-04-17T02:07:06.583Z,39.75
2023-04-17T02:09:10.302Z,42.67
2023-04-17T02:11:15.940Z,42.33
2023-04-17T02:13:19.381Z,44.08
2023-04-17T02:15:24.217Z,41.78
2023-04-17T02:17:27.668Z,43.97
2023-04-17T02:19:31.115Z,42.33
2023-04-17T02:21:34.424Z,42.67
2023-04-17T02:23:37.801Z,44.28
2023-04-17T02:25:41.129Z,46.13
2023-04-17T02:27:44.494Z,40.00
2023-04-17T02:29:47.844Z,42.15
2023-04-17T02:31:52.661Z,38.90
2023-04-17T02:33:56.033Z,41.70
2023-04-17T02:35:59.940Z,43.40
2023-04-17T02:38:11.272Z,43.38
2023-04-17T02:40:16.336Z,41.45
2023-04-17T02:42:19.673Z,39.95
2023-04-17T02:44:23.493Z,41.60
2023-04-17T02:46:27.178Z,41.67
2023-04-17T02:48:32.106Z,42.25
2023-04-17T02:50:35.737Z,49.78
2023-04-17T02:52:53.024Z,37.50
2023-04-17T02:54:56.943Z,41.28
2023-04-17T02:57:01.817Z,40.67
2023-04-17T02:59:05.208Z,48.60
2023-04-17T03:01:09.003Z,47.03
2023-04-17T03:03:17.187Z,42.13
2023-04-17T03:05:23.401Z,43.00
2023-04-17T03:07:28.987Z,42.40
2023-04-17T03:09:32.324Z,44.35
2023-04-17T03:11:35.830Z,49.25
2023-04-17T03:13:39.207Z,49.58
2023-04-17T03:15:42.791Z,45.88
2023-04-17T03:17:46.265Z,45.08
2023-04-17T03:19:49.688Z,47.33
2023-04-17T03:21:54.515Z,46.35
2023-04-17T03:23:58.192Z,45.63
2023-04-17T03:26:01.877Z,49.88
2023-04-17T03:28:08.451Z,51.38
2023-04-17T03:30:12.789Z,52.80
2023-04-17T03:32:22.393Z,48.42
2023-04-17T03:34:26.241Z,51.05
2023-04-17T03:36:29.797Z,54.10
2023-04-17T03:38:37.157Z,60.50
2023-04-17T03:40:42.386Z,54.40
2023-04-17T03:42:47.182Z,54.38
2023-04-17T03:44:50.567Z,51.45
2023-04-17T03:46:54.348Z,52.80
2023-04-17T03:48:57.718Z,56.03
2023-04-17T03:51:01.334Z,52.15
2023-04-17T03:53:05.828Z,53.65
2023-04-17T03:55:12.484Z,56.50
2023-04-17T03:57:16.215Z,55.25
2023-04-17T03:59:20.158Z,56.47
2023-04-17T04:01:23.737Z,56.33
2023-04-17T04:03:40.231Z,56.65
2023-04-17T04:05:44.716Z,55.25
2023-04-17T04:07:48.171Z,58.58
2023-04-17T04:09:58.535Z,54.60
2023-04-17T04:12:03.746Z,53.10
2023-04-17T04:14:11.012Z,58.40
2023-04-17T04:16:15.318Z,56.28
2023-04-17T04:18:18.944Z,58.47
2023-04-17T04:20:23.275Z,55.08
2023-04-17T04:22:31.635Z,62.00
2023-04-17T04:24:35.359Z,55.38
2023-04-17T04:26:40.987Z,55.30
2023-04-17T04:28:47.565Z,58.47
2023-04-17T04:31:04.556Z,55.45
2023-04-17T04:33:13.451Z,53.05
2023-04-17T04:35:17.594Z,53.75
2023-04-17T04:37:22.011Z,53.95
2023-04-17T04:39:30.025Z,56.47
2023-04-17T04:41:35.580Z,55.53
2023-04-17T04:43:42.372Z,55.75
2023-04-17T04:45:47.916Z,59.17
2023-04-17T04:47:51.624Z,54.20
2023-04-17T04:49:55.004Z,58.60
2023-04-17T04:51:59.517Z,57.80
2023-04-17T04:54:08.325Z,56.47
2023-04-17T04:58:25.601Z,54.13
2023-04-17T05:00:32.842Z,55.35
2023-04-17T05:02:38.699Z,59.75
2023-04-17T05:04:45.221Z,57.10
2023-04-17T05:06:48.923Z,62.97
2023-04-17T05:08:52.754Z,62.38
2023-04-17T05:10:56.126Z,60.25
2023-04-17T05:12:59.774Z,60.53
2023-04-17T05:15:03.456Z,60.47
2023-04-17T05:17:07.307Z,58.88
2023-04-17T05:19:12.554Z,61.35
2023-04-17T05:21:31.109Z,59.08
2023-04-17T05:23:34.821Z,56.95
2023-04-17T05:25:38.176Z,54.33
2023-04-17T05:27:43.684Z,55.60
2023-04-17T05:29:48.177Z,61.50
2023-04-17T05:31:51.762Z,53.10
2023-04-17T05:34:26.194Z,57.13
2023-04-17T05:36:31.546Z,54.60
2023-04-17T05:38:46.031Z,53.85
2023-04-17T05:41:02.649Z,50.13
2023-04-17T05:43:09.532Z,51.63
2023-04-17T05:45:14.634Z,50.03
2023-04-17T05:47:17.996Z,55.10
2023-04-17T05:49:21.406Z,56.22
2023-04-17T05:51:26.333Z,53.08
2023-04-17T05:53:31.189Z,51.30
2023-04-17T05:55:35.448Z,61.13
2023-04-17T05:57:40.853Z,55.42
2023-04-17T05:59:44.632Z,58.10
2023-04-17T06:01:48.770Z,56.10
2023-04-17T06:03:56.138Z,53.55
2023-04-17T06:06:03.009Z,53.42
2023-04-17T06:08:08.950Z,51.75
2023-04-17T06:10:12.887Z,51.20
2023-04-17T06:12:16.407Z,51.08
2023-04-17T06:14:21.185Z,52.33
2023-04-17T06:16:24.645Z,54.20
2023-04-17T06:18:28.110Z,50.78
2023-04-17T06:20:31.576Z,51.15
2023-04-17T06:22:35.130Z,52.28
2023-04-17T06:24:39.920Z,51.55
2023-04-17T06:26:43.304Z,46.13
2023-04-17T06:28:46.665Z,51.05
2023-04-17T06:30:50.166Z,49.45
2023-04-17T06:32:54.749Z,51.83
2023-04-17T06:34:59.730Z,48.55
2023-04-17T06:37:25.946Z,50.50
2023-04-17T06:39:29.292Z,51.45
2023-04-17T06:41:37.127Z,49.05
2023-04-17T06:43:40.461Z,51.13
2023-04-17T06:45:51.117Z,47.33
2023-04-17T06:47:54.623Z,44.88
2023-04-17T06:49:59.948Z,50.47
2023-04-17T06:52:03.514Z,46.53
2023-04-17T06:54:06.956Z,46.60
2023-04-17T06:56:10.241Z,42.72
2023-04-17T06:58:15.185Z,43.38
2023-04-17T07:00:19.323Z,42.33
2023-04-17T07:02:22.926Z,41.25
2023-04-17T07:04:27.190Z,42.17
2023-04-17T07:06:31.604Z,41.28
2023-04-17T07:08:35.207Z,48.00
2023-04-17T07:10:38.664Z,47.25
2023-04-17T07:12:42.045Z,46.25
2023-04-17T07:14:46.748Z,39.47
2023-04-17T07:16:50.504Z,42.85
2023-04-17T07:18:54.145Z,42.80
2023-04-17T07:20:57.879Z,40.80
2023-04-17T07:23:01.328Z,43.17
2023-04-17T07:25:05.701Z,43.53
2023-04-17T07:27:09.146Z,41.60
2023-04-17T07:29:12.655Z,40.40
2023-04-17T07:31:18.254Z,41.50
2023-04-17T07:33:21.677Z,35.40
2023-04-17T07:35:25.240Z,37.55
2023-04-17T07:37:28.678Z,37.40
2023-04-17T07:39:32.032Z,36.10
2023-04-17T07:41:35.548Z,37.78
2023-04-17T07:43:38.963Z,33.50
2023-04-17T07:45:42.307Z,33.63
2023-04-17T07:47:47.700Z,36.35
2023-04-17T07:49:51.445Z,31.80
2023-04-17T07:51:55.845Z,34.78
2023-04-17T07:53:59.227Z,28.80
2023-04-17T07:56:02.638Z,31.05
2023-04-17T07:58:06.570Z,27.52
2023-04-17T08:00:11.385Z,29.90
2023-04-17T08:02:19.052Z,29.17
2023-04-17T08:04:26.182Z,26.67
2023-04-17T08:06:29.808Z,29.00
2023-04-17T08:08:33.184Z,27.77
2023-04-17T08:10:36.592Z,26.63
2023-04-17T08:12:40.043Z,23.92
2023-04-17T08:14:43.839Z,22.90
2023-04-17T08:16:47.366Z,24.58
2023-04-17T08:18:50.763Z,22.27
2023-04-17T08:20:55.640Z,23.50
2023-04-17T08:22:59.043Z,25.33
2023-04-17T08:25:03.141Z,26.83
2023-04-17T08:27:07.938Z,23.90
2023-04-17T08:29:11.600Z,23.10
2023-04-17T08:31:15.344Z,23.60
2023-04-17T08:33:19.094Z,26.55
2023-04-17T08:35:22.568Z,25.42
2023-04-17T08:37:28.238Z,21.75
2023-04-17T08:39:31.572Z,23.05
2023-04-17T08:41:40.810Z,26.17
2023-04-17T08:43:49.785Z,20.80
2023-04-17T08:45:55.445Z,23.27
2023-04-17T08:47:59.067Z,28.13
2023-04-17T08:50:09.804Z,20.23
2023-04-17T08:52:13.154Z,26.83
2023-04-17T08:54:19.507Z,20.33
2023-04-17T08:56:23.201Z,15.57
2023-04-17T08:58:28.686Z,18.38
2023-04-17T09:00:33.696Z,20.67
2023-04-17T09:02:53.767Z,16.77
2023-04-17T09:04:57.298Z,15.45
2023-04-17T09:07:00.814Z,16.48
2023-04-17T09:09:04.885Z,15.65
2023-04-17T09:11:19.112Z,14.07
2023-04-17T09:13:25.082Z,15.90
2023-04-17T09:15:28.711Z,18.33
2023-04-17T09:17:38.031Z,18.92
2023-04-17T09:20:07.863Z,17.27
2023-04-17T09:22:21.932Z,16.88
2023-04-17T09:24:34.526Z,14.93
2023-04-17T09:26:39.463Z,21.40
2023-04-17T09:29:01.072Z,14.73
2023-04-17T09:33:10.347Z,18.05
2023-04-17T09:35:25.771Z,19.50
2023-04-17T09:37:49.620Z,17.15
2023-04-17T09:40:00.551Z,15.57
2023-04-17T09:42:06.226Z,16.27
2023-04-17T09:44:10.071Z,16.02
2023-04-17T09:46:14.364Z,20.38
2023-04-17T09:48:18.470Z,15.70
2023-04-17T09:50:22.844Z,19.17
2023-04-17T09:52:26.301Z,13.40
2023-04-17T09:54:31.583Z,15.77
2023-04-17T09:56:37.904Z,17.10
2023-04-17T09:58:43.187Z,19.52
2023-04-17T10:00:46.937Z,13.43
2023-04-17T10:02:52.363Z,15.10
2023-04-17T10:04:55.963Z,16.60
2023-04-17T10:06:59.393Z,14.70
2023-04-17T10:09:04.080Z,13.57
2023-04-17T10:11:08.800Z,14.13
2023-04-17T10:13:13.297Z,14.38
2023-04-17T10:15:18.710Z,15.38
2023-04-17T10:17:26.413Z,15.38
2023-04-17T10:19:31.549Z,14.05
2023-04-17T10:21:35.119Z,14.77
2023-04-17T10:23:40.116Z,12.60
2023-04-17T10:25:43.848Z,16.83
2023-04-17T10:27:51.106Z,12.32
2023-04-17T10:29:55.155Z,14.63
2023-04-17T10:32:25.932Z,14.85
2023-04-17T10:34:39.952Z,19.73
2023-04-17T10:36:51.363Z,15.65
2023-04-17T10:38:54.663Z,18.75
2023-04-17T10:40:59.423Z,18.48
2023-04-17T10:43:08.683Z,13.55
2023-04-17T10:45:20.213Z,16.08
2023-04-17T10:47:31.881Z,17.23
2023-04-17T10:49:48.476Z,20.42
2023-04-17T10:51:52.639Z,16.33
2023-04-17T10:53:57.811Z,30.83
2023-04-17T10:56:09.213Z,17.08
2023-04-17T11:00:18.755Z,17.05
2023-04-17T11:02:34.778Z,16.98
2023-04-17T11:04:40.724Z,19.63
2023-04-17T11:06:47.069Z,16.88
2023-04-17T11:08:51.510Z,16.05
2023-04-17T11:10:59.531Z,14.02
2023-04-17T11:13:05.353Z,14.48
2023-04-17T11:15:10.483Z,16.65
2023-04-17T11:17:14.097Z,16.85
2023-04-17T11:19:23.201Z,15.00
2023-04-17T11:21:27.765Z,15.35
2023-04-17T11:23:34.972Z,16.63
2023-04-17T11:25:38.704Z,13.50
2023-04-17T11:27:42.475Z,16.92
2023-04-17T11:29:46.665Z,14.40
2023-04-17T11:31:53.859Z,18.10
2023-04-17T11:34:00.344Z,11.65
2023-04-17T11:36:06.161Z,12.05
2023-04-17T11:38:17.558Z,12.15
2023-04-17T11:40:24.303Z,13.77
2023-04-17T11:42:28.539Z,14.27
2023-04-17T11:44:31.910Z,14.13
2023-04-17T11:46:35.932Z,14.35
2023-04-17T11:48:39.492Z,12.10
2023-04-17T11:50:45.664Z,12.77
2023-04-17T11:52:50.590Z,10.50
2023-04-17T11:54:59.398Z,10.88
2023-04-17T11:57:04.466Z,11.95
2023-04-17T11:59:09.304Z,12.45
2023-04-17T12:01:16.332Z,15.25
2023-04-17T12:03:45.544Z,10.55
2023-04-17T12:06:00.920Z,12.88
2023-04-17T12:08:08.382Z,12.48
2023-04-17T12:10:12.095Z,9.10
2023-04-17T12:12:16.587Z,14.35
2023-04-17T12:14:20.134Z,11.07
2023-04-17T12:16:24.800Z,10.93
2023-04-17T12:18:28.312Z,12.57
2023-04-17T12:20:31.683Z,11.57
2023-04-17T12:22:34.978Z,10.30
2023-04-17T12:24:39.733Z,13.75
2023-04-17T12:26:47.501Z,13.27
2023-04-17T12:28:50.929Z,14.95
2023-04-17T12:30:54.361Z,16.95
2023-04-17T12:32:57.821Z,13.85
2023-04-17T12:35:01.300Z,11.60
2023-04-17T12:37:04.661Z,14.43
2023-04-17T12:39:08.059Z,13.68
2023-04-17T12:41:13.200Z,13.43
2023-04-17T12:43:16.528Z,13.63
2023-04-17T12:45:21.298Z,19.77
2023-04-17T12:47:24.671Z,11.93
2023-04-17T12:49:27.989Z,14.05
2023-04-17T12:51:32.320Z,12.73
2023-04-17T12:53:36.330Z,13.38
2023-04-17T12:55:40.923Z,15.23
2023-04-17T12:57:46.195Z,12.88
2023-04-17T12:59:50.056Z,15.13
2023-04-17T13:01:53.386Z,11.95
2023-04-17T13:03:57.301Z,18.85
2023-04-17T13:06:00.889Z,15.18
2023-04-17T13:08:04.296Z,14.27
2023-04-17T13:10:08.752Z,13.05
2023-04-17T13:12:13.084Z,15.88
2023-04-17T13:14:17.921Z,11.23
2023-04-17T13:16:21.313Z,10.13
2023-04-17T13:18:24.728Z,9.73
2023-04-17T13:20:28.040Z,13.20
2023-04-17T13:22:31.484Z,14.30
2023-04-17T13:24:35.793Z,9.40
2023-04-17T13:26:39.299Z,9.95
2023-04-17T13:28:42.620Z,11.60
2023-04-17T13:30:47.449Z,13.82
2023-04-17T13:32:50.788Z,12.43
2023-04-17T13:34:54.389Z,11.23
2023-04-17T13:36:58.655Z,10.68
2023-04-17T13:39:01.939Z,11.85
2023-04-17T13:41:05.202Z,10.57
2023-04-17T13:43:09.186Z,10.63
2023-04-17T13:45:13.425Z,15.30
2023-04-17T13:47:18.127Z,12.02
2023-04-17T13:49:21.718Z,12.32
2023-04-17T13:51:25.165Z,13.35
2023-04-17T13:53:28.512Z,11.35
2023-04-17T13:55:31.913Z,12.98
2023-04-17T13:57:35.713Z,11.10
2023-04-17T13:59:39.077Z,9.90
2023-04-17T14:01:42.446Z,12.57
2023-04-17T14:03:47.647Z,11.40
2023-04-17T14:05:51.290Z,11.52
2023-04-17T14:07:54.753Z,12.52
2023-04-17T14:09:58.080Z,9.25
2023-04-17T14:12:02.497Z,10.23
2023-04-17T14:14:06.394Z,11.85
2023-04-17T14:16:09.812Z,9.30
2023-04-17T14:18:13.655Z,6.72
2023-04-17T14:20:20.035Z,10.32
2023-04-17T14:22:23.401Z,11.13
2023-04-17T14:24:27.006Z,8.38
2023-04-17T14:26:30.534Z,8.55
2023-04-17T14:28:34.913Z,9.57
2023-04-17T14:30:38.665Z,10.40
2023-04-17T14:32:42.184Z,9.50
2023-04-17T14:34:45.685Z,10.73
2023-04-17T14:36:51.027Z,11.23
2023-04-17T14:38:55.132Z,8.60
2023-04-17T14:41:00.914Z,9.15
2023-04-17T14:43:04.321Z,13.60
2023-04-17T14:45:09.032Z,9.75
2023-04-17T14:47:13.167Z,9.07
2023-04-17T14:49:20.523Z,10.48
2023-04-17T14:51:25.443Z,9.93
2023-04-17T14:53:30.087Z,9.55
2023-04-17T14:55:33.510Z,9.65
2023-04-17T14:57:39.275Z,13.38
2023-04-17T14:59:44.504Z,11.65
2023-04-17T15:01:48.207Z,9.45
2023-04-17T15:03:51.954Z,7.80
2023-04-17T15:05:58.082Z,9.15
2023-04-17T15:08:03.132Z,9.85
2023-04-17T15:10:15.913Z,11.90
2023-04-17T15:12:21.393Z,11.75
2023-04-17T15:14:25.919Z,9.80
2023-04-17T15:16:29.298Z,8.93
2023-04-17T15:18:32.664Z,10.70
2023-04-17T15:20:36.526Z,10.68
2023-04-17T15:22:41.129Z,14.13
2023-04-17T15:24:45.115Z,11.35
2023-04-17T15:26:51.274Z,11.05
2023-04-17T15:28:54.656Z,14.23
2023-04-17T15:31:01.429Z,10.32
2023-04-17T15:33:10.287Z,9.40
2023-04-17T15:35:15.081Z,10.27
2023-04-17T15:37:18.463Z,10.88
2023-04-17T15:39:21.781Z,14.38
2023-04-17T15:41:25.229Z,12.48
2023-04-17T15:43:30.079Z,13.05
2023-04-17T15:45:33.671Z,12.98
2023-04-17T15:47:37.383Z,15.30
2023-04-17T15:49:40.953Z,9.25
2023-04-17T15:51:45.686Z,14.20
2023-04-17T15:53:52.365Z,10.02
2023-04-17T15:55:55.652Z,10.18
2023-04-17T15:57:59.365Z,12.25
2023-04-17T16:00:05.357Z,10.60
2023-04-17T16:02:14.092Z,11.43
2023-04-17T16:04:20.219Z,12.13
2023-04-17T16:06:25.151Z,12.05
2023-04-17T16:08:29.940Z,12.05
2023-04-17T16:10:33.254Z,9.48
2023-04-17T16:12:40.443Z,15.35
2023-04-17T16:14:44.851Z,10.48
2023-04-17T16:16:54.194Z,9.88
2023-04-17T16:18:58.557Z,11.18
2023-04-17T16:21:01.892Z,20.58
2023-04-17T16:23:05.328Z,10.82
2023-04-17T16:25:13.027Z,9.95
2023-04-17T16:27:16.914Z,12.75
2023-04-17T16:29:20.290Z,11.05
2023-04-17T16:31:26.040Z,10.15
2023-04-17T16:33:31.097Z,12.23
2023-04-17T16:35:36.341Z,9.50
2023-04-17T16:37:39.760Z,11.65
2023-04-17T16:39:43.178Z,13.98
2023-04-17T16:41:46.520Z,12.07
2023-04-17T16:43:49.862Z,11.95
2023-04-17T16:45:53.504Z,12.32
2023-04-17T16:47:56.981Z,10.48
2023-04-17T16:50:02.023Z,11.88
2023-04-17T16:52:05.468Z,12.60
2023-04-17T16:54:10.014Z,13.23
2023-04-17T16:56:13.580Z,14.07
2023-04-17T16:58:17.005Z,15.23
2023-04-17T17:00:20.796Z,13.15
2023-04-17T17:02:24.213Z,16.73
2023-04-17T17:04:28.081Z,12.13
2023-04-17T17:06:32.967Z,13.40
2023-04-17T17:08:36.541Z,10.02
2023-04-17T17:10:39.894Z,12.90
2023-04-17T17:12:43.483Z,29.77
2023-04-17T17:14:46.936Z,10.07
2023-04-17T17:16:50.826Z,16.02
2023-04-17T17:18:55.672Z,14.57
2023-04-17T17:21:00.196Z,13.90
2023-04-17T17:23:06.000Z,12.00
2023-04-17T17:25:10.915Z,12.27
2023-04-17T17:27:15.319Z,11.93
2023-04-17T17:29:18.923Z,14.27
2023-04-17T17:31:22.405Z,13.90
2023-04-17T17:33:26.060Z,14.48
2023-04-17T17:35:29.485Z,14.65
2023-04-17T17:37:32.803Z,16.60
2023-04-17T17:39:37.455Z,14.10
2023-04-17T17:41:41.114Z,13.88
2023-04-17T17:43:44.404Z,13.05
2023-04-17T17:45:47.723Z,12.05
2023-04-17T17:47:51.063Z,13.05
2023-04-17T17:49:54.364Z,15.85
2023-04-17T17:51:57.789Z,13.45
2023-04-17T17:54:01.234Z,14.65
2023-04-17T17:56:06.781Z,14.52
2023-04-17T17:58:10.702Z,12.65
2023-04-17T18:00:15.504Z,16.33
2023-04-17T18:02:19.159Z,15.00
2023-04-17T18:04:23.254Z,17.65
2023-04-17T18:06:27.942Z,14.35
2023-04-17T18:08:31.335Z,15.48
2023-04-17T18:10:34.889Z,14.82
2023-04-17T18:12:39.782Z,14.20
2023-04-17T18:14:43.267Z,13.60
2023-04-17T18:16:46.915Z,12.82
2023-04-17T18:18:50.896Z,15.85
2023-04-17T18:20:54.356Z,17.83
2023-04-17T18:22:57.780Z,14.43
2023-04-17T18:25:01.687Z,14.82
2023-04-17T18:27:05.342Z,14.25
2023-04-17T18:29:10.193Z,14.73
2023-04-17T18:31:13.715Z,14.52
2023-04-17T18:33:17.242Z,16.35
2023-04-17T18:35:20.680Z,14.07
2023-04-17T18:37:24.210Z,16.92
2023-04-17T18:39:27.695Z,11.90
2023-04-17T18:41:31.055Z,15.45
2023-04-17T18:43:34.433Z,13.18
2023-04-17T18:45:39.235Z,13.40
2023-04-17T18:47:42.683Z,15.23
2023-04-17T18:49:46.152Z,17.60
2023-04-17T18:51:50.234Z,14.55
2023-04-17T18:53:53.660Z,15.90
2023-04-17T18:55:58.042Z,16.10
2023-04-17T18:58:01.372Z,13.57
2023-04-17T19:00:06.322Z,17.48
2023-04-17T19:02:11.181Z,13.30
2023-04-17T19:04:14.958Z,12.20
2023-04-17T19:06:19.620Z,12.75
2023-04-17T19:08:23.208Z,12.57
2023-04-17T19:10:26.602Z,13.23
2023-04-17T19:12:30.579Z,15.18
2023-04-17T19:14:33.979Z,14.77
2023-04-17T19:16:40.732Z,16.52
2023-04-17T19:18:45.579Z,14.73
2023-04-17T19:20:49.141Z,17.40
2023-04-17T19:22:52.484Z,15.57
2023-04-17T19:24:55.824Z,17.52
2023-04-17T19:26:59.152Z,11.63
2023-04-17T19:29:03.240Z,16.05
2023-04-17T19:31:06.618Z,16.42
2023-04-17T19:33:10.840Z,16.80
2023-04-17T19:35:15.819Z,15.82
2023-04-17T19:37:19.162Z,16.45
2023-04-17T19:39:22.462Z,20.00
2023-04-17T19:41:26.416Z,14.77
2023-04-17T19:43:29.830Z,15.57
2023-04-17T19:45:34.898Z,17.65
2023-04-17T19:47:40.136Z,16.63
2023-04-17T19:49:43.623Z,15.02
2023-04-17T19:51:48.508Z,14.10
2023-04-17T19:53:53.507Z,19.48
2023-04-17T19:55:56.879Z,15.77
2023-04-17T19:58:00.511Z,17.80
2023-04-17T20:00:04.064Z,18.60
2023-04-17T20:02:17.362Z,20.88
2023-04-17T20:04:20.991Z,18.50
2023-04-17T20:06:24.548Z,16.58
2023-04-17T20:08:29.483Z,16.95
2023-04-17T20:10:32.848Z,20.48
2023-04-17T20:12:36.153Z,19.55
2023-04-17T20:14:40.199Z,17.75
2023-04-17T20:16:46.487Z,19.77
2023-04-17T20:18:51.764Z,18.02
2023-04-17T20:20:55.138Z,21.50
2023-04-17T20:22:58.614Z,23.02
2023-04-17T20:25:03.462Z,19.88
2023-04-17T20:27:06.858Z,20.35
2023-04-17T20:29:10.700Z,20.92
2023-04-17T20:31:14.427Z,21.25
2023-04-17T20:33:17.943Z,21.85
2023-04-17T20:35:24.491Z,27.63
2023-04-17T20:37:27.938Z,20.67
2023-04-17T20:39:32.115Z,22.23
2023-04-17T20:41:38.991Z,18.25
2023-04-17T20:43:43.036Z,27.65
2023-04-17T20:45:48.355Z,19.83
2023-04-17T20:47:56.861Z,21.10
2023-04-17T20:50:00.867Z,24.65
2023-04-17T20:52:05.010Z,16.30
2023-04-17T20:54:08.517Z,19.60
2023-04-17T20:56:11.829Z,24.30
2023-04-17T20:58:16.589Z,21.30
2023-04-17T21:00:20.327Z,22.40
2023-04-17T21:02:23.901Z,21.50
2023-04-17T21:04:27.511Z,22.50
2023-04-17T21:06:30.874Z,19.02
2023-04-17T21:08:34.540Z,19.13
2023-04-17T21:10:38.002Z,20.48
2023-04-17T21:12:41.479Z,20.10
2023-04-17T21:14:46.284Z,21.63
2023-04-17T21:16:49.646Z,19.75
2023-04-17T21:18:53.046Z,20.88
2023-04-17T21:20:56.432Z,21.35
2023-04-17T21:23:00.023Z,26.17
2023-04-17T21:25:03.421Z,26.33
2023-04-17T21:27:06.832Z,26.58
2023-04-17T21:29:10.973Z,21.25
2023-04-17T21:31:16.802Z,26.52
2023-04-17T21:33:20.371Z,21.15
2023-04-17T21:35:23.957Z,23.77
2023-04-17T21:37:27.338Z,26.00
2023-04-17T21:39:33.053Z,22.30
2023-04-17T21:41:36.888Z,22.30
2023-04-17T21:43:40.256Z,22.85
2023-04-17T21:45:43.653Z,23.80
2023-04-17T21:47:48.398Z,26.88
2023-04-17T21:49:51.928Z,25.67
2023-04-17T21:51:55.273Z,22.70
2023-04-17T21:53:58.635Z,24.77
2023-04-17T21:56:02.105Z,23.63
2023-04-17T21:58:05.596Z,29.45
2023-04-17T22:00:12.552Z,23.95
2023-04-17T22:02:16.095Z,23.52
2023-04-17T22:04:20.887Z,25.98
2023-04-17T22:06:24.382Z,24.60
2023-04-17T22:08:27.956Z,26.00
2023-04-17T22:10:31.374Z,24.63
2023-04-17T22:12:34.873Z,25.77
2023-04-17T22:14:38.253Z,21.02
2023-04-17T22:16:41.655Z,26.10
2023-04-17T22:18:45.084Z,27.85
2023-04-17T22:20:50.022Z,24.08
2023-04-17T22:22:54.472Z,26.23
2023-04-17T22:24:57.867Z,22.00
2023-04-17T22:27:01.735Z,22.92
2023-04-17T22:29:05.162Z,23.60
2023-04-17T22:31:08.630Z,26.98
2023-04-17T22:33:11.971Z,25.77
2023-04-17T22:35:15.349Z,28.17
2023-04-17T22:37:20.049Z,22.88
2023-04-17T22:39:23.473Z,21.98
2023-04-17T22:41:26.839Z,24.55
2023-04-17T22:43:30.223Z,22.05
2023-04-17T22:45:33.620Z,23.42
2023-04-17T22:47:36.948Z,24.85
2023-04-17T22:49:40.726Z,22.23
2023-04-17T22:51:44.596Z,20.80
2023-04-17T22:53:49.297Z,26.08
2023-04-17T22:56:01.544Z,27.75
2023-04-17T22:58:04.960Z,25.08
2023-04-17T23:00:10.239Z,24.65
2023-04-17T23:02:13.772Z,27.25
2023-04-17T23:04:17.229Z,25.02
2023-04-17T23:06:23.542Z,25.55
2023-04-17T23:08:26.950Z,26.23
2023-04-17T23:10:31.710Z,25.83
2023-04-17T23:12:35.119Z,26.02
2023-04-17T23:14:38.549Z,27.13
2023-04-17T23:16:41.936Z,27.02
2023-04-17T23:18:45.197Z,25.20
2023-04-17T23:20:48.769Z,29.30
2023-04-17T23:22:53.022Z,27.23
2023-04-17T23:24:56.432Z,30.90
2023-04-17T23:27:01.983Z,27.90
2023-04-17T23:29:05.471Z,25.48
2023-04-17T23:31:08.877Z,30.05
2023-04-17T23:33:12.288Z,27.48
2023-04-17T23:35:15.555Z,33.17
2023-04-17T23:37:18.843Z,26.35
2023-04-17T23:39:22.372Z,32.63
2023-04-17T23:41:26.704Z,31.80
2023-04-17T23:43:31.555Z,31.77
2023-04-17T23:45:34.845Z,28.23
2023-04-17T23:47:38.212Z,28.85
2023-04-17T23:49:41.564Z,30.75
2023-04-17T23:51:44.878Z,29.63
2023-04-17T23:53:49.177Z,29.00
2023-04-17T23:55:52.483Z,37.63
2023-04-17T23:57:56.652Z,34.80
